createdAt,value
2023-03-05T00:01:22.689Z,101397.31
2023-03-05T00:03:52.170Z,101391.78
2023-03-05T00:06:19.845Z,101388.31
2023-03-05T00:08:47.522Z,101385.75
2023-03-05T00:11:15.233Z,101383.41
2023-03-05T00:13:42.771Z,101377.06
2023-03-05T00:16:13.827Z,101366.75
2023-03-05T00:18:42.133Z,101374.13
2023-03-05T00:21:21.604Z,101370.09
2023-03-05T00:23:50.557Z,101372.16
2023-03-05T00:26:18.364Z,101366.22
2023-03-05T00:28:49.766Z,101369.53
2023-03-05T00:31:20.423Z,101357.44
2023-03-05T00:33:52.383Z,101364.41
2023-03-05T00:36:20.249Z,101363.28
2023-03-05T00:38:48.131Z,101361.47
2023-03-05T00:41:15.703Z,101352.78
2023-03-05T00:43:43.952Z,101354.59
2023-03-05T00:46:12.193Z,101352.53
2023-03-05T00:48:41.069Z,101356.63
2023-03-05T00:51:09.191Z,101353.50
2023-03-05T00:53:37.006Z,101356.59
2023-03-05T00:56:06.087Z,101362.47
2023-03-05T00:58:33.759Z,101349.03
2023-03-05T01:01:02.848Z,101350.56
2023-03-05T01:03:30.905Z,101348.38
2023-03-05T01:06:00.119Z,101342.00
2023-03-05T01:08:27.802Z,101343.03
2023-03-05T01:10:55.823Z,101336.50
2023-03-05T01:13:23.549Z,101347.63
2023-03-05T01:15:51.292Z,101348.16
2023-03-05T01:18:19.276Z,101338.16
2023-03-05T01:20:47.506Z,101329.88
2023-03-05T01:23:17.033Z,101322.63
2023-03-05T01:25:44.783Z,101323.88
2023-03-05T01:28:12.807Z,101322.41
2023-03-05T01:30:40.356Z,101315.19
2023-03-05T01:33:07.864Z,101313.78
2023-03-05T01:35:35.602Z,101317.41
2023-03-05T01:38:03.118Z,101310.75
2023-03-05T01:40:33.141Z,101313.50
2023-03-05T01:43:09.539Z,101306.13
2023-03-05T01:45:37.065Z,101307.66
2023-03-05T01:48:05.371Z,101304.06
2023-03-05T01:50:34.400Z,101299.06
2023-03-05T01:53:04.988Z,101301.81
2023-03-05T01:55:37.126Z,101292.00
2023-03-05T01:58:07.706Z,101287.53
2023-03-05T02:00:40.586Z,101282.97
2023-03-05T02:03:10.606Z,101279.34
2023-03-05T02:05:41.092Z,101282.41
2023-03-05T02:08:11.149Z,101277.03
2023-03-05T02:10:43.006Z,101274.66
2023-03-05T02:13:14.039Z,101263.03
2023-03-05T02:15:42.849Z,101257.59
2023-03-05T02:18:11.570Z,101260.66
2023-03-05T02:20:47.393Z,101261.06
2023-03-05T02:23:16.907Z,101261.88
2023-03-05T02:25:44.886Z,101256.22
2023-03-05T02:28:19.030Z,101249.69
2023-03-05T02:30:46.785Z,101255.78
2023-03-05T02:33:14.854Z,101258.00
2023-03-05T02:35:43.584Z,101255.22
2023-03-05T02:38:12.086Z,101250.81
2023-03-05T02:40:41.214Z,101254.72
2023-03-05T02:43:09.529Z,101247.25
2023-03-05T02:45:37.622Z,101240.31
2023-03-05T02:48:05.635Z,101242.41
2023-03-05T02:50:33.866Z,101240.91
2023-03-05T02:53:01.396Z,101235.63
2023-03-05T02:55:29.783Z,101232.28
2023-03-05T02:57:58.641Z,101227.72
2023-03-05T03:00:26.917Z,101230.34
2023-03-05T03:02:54.493Z,101226.06
2023-03-05T03:05:22.005Z,101223.41
2023-03-05T03:07:49.681Z,101223.41
2023-03-05T03:10:17.259Z,101224.81
2023-03-05T03:12:45.606Z,101216.47
2023-03-05T03:15:17.181Z,101206.47
2023-03-05T03:17:44.772Z,101218.31
2023-03-05T03:20:16.480Z,101212.88
2023-03-05T03:22:45.621Z,101212.59
2023-03-05T03:25:15.862Z,101206.34
2023-03-05T03:27:43.354Z,101206.72
2023-03-05T03:30:14.297Z,101202.84
2023-03-05T03:32:42.031Z,101192.19
2023-03-05T03:35:11.452Z,101190.38
2023-03-05T03:37:39.189Z,101194.81
2023-03-05T03:40:08.135Z,101191.50
2023-03-05T03:42:35.968Z,101178.63
2023-03-05T03:45:03.707Z,101177.53
2023-03-05T03:47:32.615Z,101179.75
2023-03-05T03:50:00.164Z,101186.31
2023-03-05T03:52:28.118Z,101180.75
2023-03-05T03:55:01.255Z,101177.97
2023-03-05T03:57:30.031Z,101166.28
2023-03-05T03:59:57.674Z,101166.56
2023-03-05T04:02:25.190Z,101174.09
2023-03-05T04:04:54.248Z,101171.31
2023-03-05T04:07:21.798Z,101172.56
2023-03-05T04:09:49.443Z,101169.63
2023-03-05T04:12:18.227Z,101169.78
2023-03-05T04:14:47.085Z,101173.53
2023-03-05T04:17:15.832Z,101176.72
2023-03-05T04:19:43.851Z,101172.94
2023-03-05T04:22:13.186Z,101166.31
2023-03-05T04:24:41.153Z,101156.63
2023-03-05T04:27:09.002Z,101164.22
2023-03-05T04:29:37.140Z,101152.91
2023-03-05T04:32:05.421Z,101152.47
2023-03-05T04:34:33.752Z,101152.44
2023-03-05T04:37:01.291Z,101146.34
2023-03-05T04:39:30.457Z,101139.94
2023-03-05T04:41:58.038Z,101141.63
2023-03-05T04:44:25.995Z,101137.31
2023-03-05T04:46:53.611Z,101138.59
2023-03-05T04:49:21.544Z,101126.78
2023-03-05T04:51:49.542Z,101123.31
2023-03-05T04:54:17.046Z,101118.03
2023-03-05T04:56:46.012Z,101121.13
2023-03-05T04:59:13.567Z,101117.06
2023-03-05T05:01:41.192Z,101113.59
2023-03-05T05:04:08.770Z,101108.75
2023-03-05T05:06:36.517Z,101113.94
2023-03-05T05:09:04.270Z,101114.06
2023-03-05T05:11:31.832Z,101114.28
2023-03-05T05:14:00.691Z,101118.22
2023-03-05T05:16:28.230Z,101120.28
2023-03-05T05:18:55.777Z,101112.25
2023-03-05T05:21:23.351Z,101103.00
2023-03-05T05:23:51.001Z,101109.59
2023-03-05T05:26:18.505Z,101103.88
2023-03-05T05:28:46.241Z,101102.56
2023-03-05T05:31:17.092Z,101107.47
2023-03-05T05:33:45.400Z,101095.66
2023-03-05T05:36:14.978Z,101092.31
2023-03-05T05:38:43.232Z,101097.84
2023-03-05T05:41:13.666Z,101097.75
2023-03-05T05:43:41.237Z,101089.00
2023-03-05T05:46:11.639Z,101094.84
2023-03-05T05:48:40.916Z,101086.34
2023-03-05T05:51:10.331Z,101087.75
2023-03-05T05:53:38.040Z,101094.09
2023-03-05T05:56:07.571Z,101089.81
2023-03-05T05:58:35.484Z,101091.91
2023-03-05T06:01:03.434Z,101090.22
2023-03-05T06:03:31.253Z,101095.66
2023-03-05T06:06:00.180Z,101100.53
2023-03-05T06:08:27.709Z,101090.69
2023-03-05T06:10:56.195Z,101099.16
2023-03-05T06:13:23.780Z,101105.50
2023-03-05T06:15:58.542Z,101098.84
2023-03-05T06:18:26.186Z,101104.13
2023-03-05T06:20:57.500Z,101087.34
2023-03-05T06:23:27.899Z,101097.47
2023-03-05T06:25:55.998Z,101085.50
2023-03-05T06:28:23.513Z,101090.22
2023-03-05T06:30:51.047Z,101085.50
2023-03-05T06:33:18.579Z,101090.47
2023-03-05T06:35:46.164Z,101092.44
2023-03-05T06:38:13.744Z,101089.66
2023-03-05T06:40:42.638Z,101089.06
2023-03-05T06:43:10.185Z,101091.28
2023-03-05T06:45:37.810Z,101102.13
2023-03-05T06:48:05.652Z,101087.63
2023-03-05T06:50:35.561Z,101085.28
2023-03-05T06:53:03.587Z,101090.19
2023-03-05T06:55:31.236Z,101092.06
2023-03-05T06:58:00.131Z,101082.66
2023-03-05T07:00:29.653Z,101086.22
2023-03-05T07:02:57.183Z,101082.84
2023-03-05T07:05:24.761Z,101088.81
2023-03-05T07:07:52.321Z,101083.22
2023-03-05T07:10:19.829Z,101084.31
2023-03-05T07:12:47.406Z,101086.78
2023-03-05T07:15:16.471Z,101086.94
2023-03-05T07:17:44.026Z,101077.81
2023-03-05T07:20:12.691Z,101084.97
2023-03-05T07:22:40.335Z,101084.50
2023-03-05T07:25:08.465Z,101078.91
2023-03-05T07:27:37.196Z,101087.53
2023-03-05T07:30:06.229Z,101073.75
2023-03-05T07:32:37.316Z,101077.22
2023-03-05T07:35:05.367Z,101083.31
2023-03-05T07:37:33.002Z,101079.75
2023-03-05T07:40:00.582Z,101085.03
2023-03-05T07:42:28.238Z,101079.41
2023-03-05T07:45:09.981Z,101071.19
2023-03-05T07:47:38.881Z,101071.03
2023-03-05T07:50:07.858Z,101077.53
2023-03-05T07:52:35.460Z,101071.78
2023-03-05T07:55:03.012Z,101062.69
2023-03-05T07:57:30.564Z,101059.13
2023-03-05T07:59:58.253Z,101059.56
2023-03-05T08:02:25.880Z,101047.97
2023-03-05T08:04:54.774Z,101045.69
2023-03-05T08:07:22.305Z,101044.47
2023-03-05T08:09:49.793Z,101045.75
2023-03-05T08:12:17.428Z,101041.25
2023-03-05T08:14:45.007Z,101046.56
2023-03-05T08:17:12.551Z,101047.63
2023-03-05T08:19:40.122Z,101050.25
2023-03-05T08:22:09.170Z,101039.53
2023-03-05T08:24:36.708Z,101042.03
2023-03-05T08:27:04.399Z,101032.75
2023-03-05T08:29:31.908Z,101034.81
2023-03-05T08:31:59.534Z,101038.47
2023-03-05T08:34:27.126Z,101035.75
2023-03-05T08:36:54.674Z,101031.50
2023-03-05T08:39:23.521Z,101039.78
2023-03-05T08:41:51.013Z,101043.53
2023-03-05T08:44:18.529Z,101035.34
2023-03-05T08:46:46.102Z,101025.41
2023-03-05T08:49:13.695Z,101032.41
2023-03-05T08:51:41.258Z,101033.72
2023-03-05T08:54:08.809Z,101024.44
2023-03-05T08:56:38.037Z,101028.91
2023-03-05T08:59:05.829Z,101028.97
2023-03-05T09:01:33.529Z,101034.25
2023-03-05T09:04:02.001Z,101025.47
2023-03-05T09:06:29.578Z,101021.31
2023-03-05T09:08:57.379Z,101019.84
2023-03-05T09:11:24.922Z,101017.66
2023-03-05T09:13:53.884Z,101014.25
2023-03-05T09:16:22.324Z,101017.25
2023-03-05T09:18:49.871Z,101010.03
2023-03-05T09:21:18.442Z,100996.50
2023-03-05T09:23:47.051Z,101001.78
2023-03-05T09:26:18.991Z,101013.19
2023-03-05T09:28:46.765Z,101005.84
2023-03-05T09:31:16.025Z,100995.00
2023-03-05T09:33:43.528Z,100995.66
2023-03-05T09:36:19.298Z,101000.75
2023-03-05T09:38:46.820Z,101003.38
2023-03-05T09:41:19.231Z,100993.78
2023-03-05T09:43:55.720Z,101001.59
2023-03-05T09:46:45.276Z,101007.25
2023-03-05T09:49:19.473Z,101014.09
2023-03-05T09:51:52.950Z,101013.53
2023-03-05T09:54:24.253Z,101008.41
2023-03-05T09:56:57.552Z,101013.28
2023-03-05T09:59:32.319Z,101015.44
2023-03-05T10:02:06.104Z,101017.75
2023-03-05T10:04:43.795Z,101011.53
2023-03-05T10:07:17.819Z,101009.03
2023-03-05T10:09:47.576Z,101013.78
2023-03-05T10:12:25.271Z,100994.91
2023-03-05T10:14:53.079Z,101000.22
2023-03-05T10:17:51.730Z,100995.31
2023-03-05T10:20:42.244Z,101000.13
2023-03-05T10:23:29.943Z,100985.34
2023-03-05T10:26:11.677Z,100985.88
2023-03-05T10:28:48.140Z,100990.66
2023-03-05T10:31:29.836Z,100986.91
2023-03-05T10:34:13.314Z,100971.41
2023-03-05T10:36:54.047Z,100974.75
2023-03-05T10:39:57.765Z,100964.69
2023-03-05T10:42:31.934Z,100965.84
2023-03-05T10:45:01.450Z,100963.03
2023-03-05T10:47:32.763Z,100965.34
2023-03-05T10:50:01.625Z,100961.22
2023-03-05T10:52:34.358Z,100954.56
2023-03-05T10:55:02.015Z,100952.94
2023-03-05T10:57:32.662Z,100949.31
2023-03-05T11:00:08.996Z,100947.00
2023-03-05T11:02:55.081Z,100948.97
2023-03-05T11:05:45.189Z,100939.22
2023-03-05T11:08:26.971Z,100945.00
2023-03-05T11:11:12.551Z,100937.06
2023-03-05T11:13:52.026Z,100933.41
2023-03-05T11:16:23.178Z,100928.06
2023-03-05T11:18:50.894Z,100956.91
2023-03-05T11:21:27.851Z,100953.75
2023-03-05T11:24:06.439Z,100952.97
2023-03-05T11:26:34.582Z,100941.22
2023-03-05T11:29:04.854Z,100938.88
2023-03-05T11:31:34.080Z,100935.47
2023-03-05T11:34:04.053Z,100938.66
2023-03-05T11:36:35.707Z,100923.69
2023-03-05T11:39:11.632Z,100921.84
2023-03-05T11:41:42.023Z,100917.88
2023-03-05T11:44:15.215Z,100905.94
2023-03-05T11:46:46.048Z,100896.28
2023-03-05T11:49:17.435Z,100887.56
2023-03-05T11:51:54.494Z,100879.81
2023-03-05T11:54:27.491Z,100875.16
2023-03-05T11:56:56.369Z,100873.13
2023-03-05T11:59:28.630Z,100875.50
2023-03-05T12:01:58.453Z,100866.41
2023-03-05T12:04:26.500Z,100858.63
2023-03-05T12:06:58.417Z,100856.16
2023-03-05T12:09:31.474Z,100852.38
2023-03-05T12:12:07.630Z,100844.09
2023-03-05T12:14:45.572Z,100843.72
2023-03-05T12:17:19.814Z,100834.16
2023-03-05T12:19:55.806Z,100840.63
2023-03-05T12:22:27.427Z,100823.53
2023-03-05T12:24:54.991Z,100821.16
2023-03-05T12:27:36.772Z,100826.88
2023-03-05T12:30:05.879Z,100825.75
2023-03-05T12:33:03.456Z,100816.47
2023-03-05T12:35:35.868Z,100815.75
2023-03-05T12:38:26.726Z,100818.69
2023-03-05T12:41:14.761Z,100813.78
2023-03-05T12:43:42.464Z,100808.69
2023-03-05T12:46:28.926Z,100802.75
2023-03-05T12:48:56.570Z,100794.81
2023-03-05T12:51:36.260Z,100801.78
2023-03-05T12:54:34.170Z,100786.06
2023-03-05T12:57:04.294Z,100795.78
2023-03-05T12:59:43.755Z,100785.19
2023-03-05T13:02:21.621Z,100793.28
2023-03-05T13:04:49.549Z,100786.06
2023-03-05T13:07:19.078Z,100781.16
2023-03-05T13:09:54.622Z,100776.91
2023-03-05T13:12:23.200Z,100779.72
2023-03-05T13:14:59.900Z,100775.25
2023-03-05T13:17:30.177Z,100775.25
2023-03-05T13:19:58.593Z,100768.28
2023-03-05T13:22:26.685Z,100792.19
2023-03-05T13:25:20.510Z,100792.41
2023-03-05T13:27:48.283Z,100789.16
2023-03-05T13:30:24.950Z,100774.25
2023-03-05T13:32:53.790Z,100767.81
2023-03-05T13:35:22.421Z,100760.84
2023-03-05T13:37:50.681Z,100748.41
2023-03-05T13:40:23.797Z,100747.00
2023-03-05T13:42:53.174Z,100739.22
2023-03-05T13:45:27.738Z,100741.38
2023-03-05T13:47:57.717Z,100747.09
2023-03-05T13:50:28.514Z,100729.16
2023-03-05T13:52:59.309Z,100726.84
2023-03-05T13:55:28.365Z,100729.06
2023-03-05T13:57:55.913Z,100718.06
2023-03-05T14:00:29.752Z,100716.38
2023-03-05T14:02:59.839Z,100713.38
2023-03-05T14:05:27.542Z,100712.59
2023-03-05T14:07:56.577Z,100707.75
2023-03-05T14:10:32.348Z,100714.91
2023-03-05T14:13:02.350Z,100709.44
2023-03-05T14:15:31.911Z,100719.34
2023-03-05T14:18:16.859Z,100709.88
2023-03-05T14:21:01.427Z,100708.38
2023-03-05T14:23:36.992Z,100696.94
2023-03-05T14:26:29.865Z,100702.47
2023-03-05T14:29:00.122Z,100699.06
2023-03-05T14:31:29.022Z,100691.41
2023-03-05T14:34:03.011Z,100695.28
2023-03-05T14:36:32.262Z,100694.34
2023-03-05T14:39:00.651Z,100675.88
2023-03-05T14:41:41.210Z,100704.06
2023-03-05T14:44:14.091Z,100682.09
2023-03-05T14:46:42.219Z,100681.34
2023-03-05T14:49:10.294Z,100672.16
2023-03-05T14:51:41.387Z,100689.75
2023-03-05T14:54:19.263Z,100687.16
2023-03-05T14:56:49.530Z,100673.09
2023-03-05T14:59:17.885Z,100672.91
2023-03-05T15:01:45.575Z,100671.25
2023-03-05T15:04:15.469Z,100666.66
2023-03-05T15:06:46.575Z,100657.00
2023-03-05T15:09:17.618Z,100666.63
2023-03-05T15:11:45.236Z,100659.91
2023-03-05T15:14:14.169Z,100659.56
2023-03-05T15:16:44.156Z,100662.56
2023-03-05T15:19:12.736Z,100663.94
2023-03-05T15:21:40.590Z,100667.28
2023-03-05T15:24:10.174Z,100662.97
2023-03-05T15:26:38.458Z,100655.84
2023-03-05T15:29:06.087Z,100649.75
2023-03-05T15:31:38.363Z,100645.91
2023-03-05T15:34:06.217Z,100645.28
2023-03-05T15:36:33.939Z,100643.28
2023-03-05T15:39:01.587Z,100646.44
2023-03-05T15:41:29.232Z,100638.84
2023-03-05T15:43:56.785Z,100641.66
2023-03-05T15:46:24.320Z,100633.03
2023-03-05T15:48:53.621Z,100637.03
2023-03-05T15:51:21.405Z,100635.09
2023-03-05T15:53:49.013Z,100638.56
2023-03-05T15:56:17.377Z,100636.03
2023-03-05T15:58:45.086Z,100623.69
2023-03-05T16:01:13.519Z,100618.38
2023-03-05T16:03:41.110Z,100617.41
2023-03-05T16:06:12.329Z,100611.63
2023-03-05T16:08:42.111Z,100614.78
2023-03-05T16:11:09.619Z,100619.75
2023-03-05T16:13:37.722Z,100614.16
2023-03-05T16:16:07.902Z,100609.56
2023-03-05T16:18:40.921Z,100599.94
2023-03-05T16:21:10.505Z,100597.66
2023-03-05T16:23:38.079Z,100597.31
2023-03-05T16:26:05.962Z,100600.63
2023-03-05T16:28:33.458Z,100596.31
2023-03-05T16:31:01.089Z,100595.97
2023-03-05T16:33:28.873Z,100600.94
2023-03-05T16:36:20.739Z,100595.81
2023-03-05T16:38:49.782Z,100592.38
2023-03-05T16:41:18.615Z,100596.69
2023-03-05T16:43:46.379Z,100598.00
2023-03-05T16:46:14.877Z,100596.00
2023-03-05T16:48:43.398Z,100592.06
2023-03-05T16:51:11.759Z,100592.25
2023-03-05T16:53:41.168Z,100597.59
2023-03-05T16:56:10.238Z,100596.25
2023-03-05T16:58:40.488Z,100593.13
2023-03-05T17:01:13.199Z,100596.44
2023-03-05T17:03:41.642Z,100585.19
2023-03-05T17:06:11.356Z,100590.16
2023-03-05T17:08:40.944Z,100592.31
2023-03-05T17:11:09.131Z,100590.81
2023-03-05T17:13:37.018Z,100580.47
2023-03-05T17:16:05.933Z,100586.72
2023-03-05T17:18:33.794Z,100582.59
2023-03-05T17:21:01.840Z,100576.50
2023-03-05T17:23:29.866Z,100573.69
2023-03-05T17:25:58.797Z,100571.72
2023-03-05T17:28:26.645Z,100574.38
2023-03-05T17:30:55.251Z,100575.69
2023-03-05T17:33:22.800Z,100566.63
2023-03-05T17:35:50.479Z,100562.16
2023-03-05T17:38:18.345Z,100567.13
2023-03-05T17:40:45.854Z,100572.06
2023-03-05T17:43:14.846Z,100560.53
2023-03-05T17:45:42.689Z,100568.78
2023-03-05T17:48:11.485Z,100563.84
2023-03-05T17:50:39.209Z,100565.16
2023-03-05T17:53:06.846Z,100564.50
2023-03-05T17:55:34.888Z,100569.78
2023-03-05T17:58:02.478Z,100558.91
2023-03-05T18:00:32.228Z,100565.97
2023-03-05T18:03:00.222Z,100564.50
2023-03-05T18:05:28.676Z,100557.59
2023-03-05T18:07:56.795Z,100567.81
2023-03-05T18:10:26.196Z,100561.53
2023-03-05T18:12:54.876Z,100556.94
2023-03-05T18:15:24.421Z,100551.66
2023-03-05T18:17:53.894Z,100555.25
2023-03-05T18:20:28.304Z,100545.72
2023-03-05T18:22:56.624Z,100549.66
2023-03-05T18:25:25.839Z,100543.06
2023-03-05T18:27:53.595Z,100548.34
2023-03-05T18:30:21.181Z,100538.09
2023-03-05T18:32:50.016Z,100528.06
2023-03-05T18:35:19.068Z,100531.69
2023-03-05T18:37:46.645Z,100533.84
2023-03-05T18:40:18.740Z,100518.31
2023-03-05T18:42:46.850Z,100521.94
2023-03-05T18:45:15.342Z,100517.00
2023-03-05T18:47:43.587Z,100513.69
2023-03-05T18:50:14.620Z,100514.50
2023-03-05T18:52:45.714Z,100505.78
2023-03-05T18:55:16.274Z,100514.84
2023-03-05T18:57:43.875Z,100502.16
2023-03-05T19:00:16.048Z,100502.97
2023-03-05T19:02:43.621Z,100508.75
2023-03-05T19:05:12.000Z,100508.09
2023-03-05T19:07:39.662Z,100501.50
2023-03-05T19:10:10.577Z,100495.88
2023-03-05T19:12:57.623Z,100490.94
2023-03-05T19:15:25.210Z,100484.34
2023-03-05T19:17:52.862Z,100484.19
2023-03-05T19:20:20.557Z,100491.25
2023-03-05T19:22:50.740Z,100482.38
2023-03-05T19:25:19.835Z,100483.69
2023-03-05T19:27:47.333Z,100480.06
2023-03-05T19:30:16.174Z,100484.81
2023-03-05T19:32:45.514Z,100480.56
2023-03-05T19:35:15.629Z,100471.81
2023-03-05T19:37:45.655Z,100475.59
2023-03-05T19:40:14.116Z,100467.84
2023-03-05T19:42:43.029Z,100463.59
2023-03-05T19:45:11.442Z,100464.09
2023-03-05T19:47:39.045Z,100455.97
2023-03-05T19:50:07.986Z,100460.59
2023-03-05T19:52:35.551Z,100461.25
2023-03-05T19:55:04.006Z,100458.31
2023-03-05T19:57:31.519Z,100456.34
2023-03-05T20:00:00.439Z,100455.53
2023-03-05T20:02:28.164Z,100450.41
2023-03-05T20:04:55.822Z,100439.03
2023-03-05T20:07:23.326Z,100445.16
2023-03-05T20:09:53.066Z,100441.84
2023-03-05T20:12:20.646Z,100440.84
2023-03-05T20:14:48.212Z,100437.22
2023-03-05T20:17:17.183Z,100441.19
2023-03-05T20:19:44.684Z,100428.97
2023-03-05T20:22:12.261Z,100426.03
2023-03-05T20:24:39.779Z,100422.38
2023-03-05T20:27:07.322Z,100426.00
2023-03-05T20:29:34.878Z,100417.94
2023-03-05T20:32:02.472Z,100415.59
2023-03-05T20:34:32.017Z,100420.41
2023-03-05T20:36:59.700Z,100421.06
2023-03-05T20:39:27.404Z,100416.97
2023-03-05T20:41:54.910Z,100410.88
2023-03-05T20:44:22.463Z,100409.53
2023-03-05T20:47:22.363Z,100410.53
2023-03-05T20:49:55.094Z,100414.50
2023-03-05T20:52:22.670Z,100406.75
2023-03-05T20:54:50.254Z,100410.53
2023-03-05T20:57:17.828Z,100402.94
2023-03-05T20:59:45.376Z,100405.75
2023-03-05T21:02:12.922Z,100399.34
2023-03-05T21:04:40.490Z,100405.91
2023-03-05T21:07:09.616Z,100398.66
2023-03-05T21:09:37.186Z,100396.38
2023-03-05T21:12:05.073Z,100383.84
2023-03-05T21:14:37.485Z,100383.50
2023-03-05T21:17:05.568Z,100377.91
2023-03-05T21:19:33.882Z,100372.31
2023-03-05T21:22:01.433Z,100369.31
2023-03-05T21:24:51.918Z,100373.28
2023-03-05T21:27:19.620Z,100380.56
2023-03-05T21:29:47.168Z,100373.13
2023-03-05T21:32:15.211Z,100374.28
2023-03-05T21:34:43.835Z,100366.06
2023-03-05T21:37:11.599Z,100374.44
2023-03-05T21:39:40.466Z,100372.16
2023-03-05T21:42:08.007Z,100368.38
2023-03-05T21:44:35.586Z,100367.88
2023-03-05T21:47:03.099Z,100363.09
2023-03-05T21:49:30.639Z,100353.34
2023-03-05T21:52:08.838Z,100356.97
2023-03-05T21:54:36.443Z,100352.69
2023-03-05T21:57:07.547Z,100344.97
2023-03-05T21:59:35.546Z,100342.66
2023-03-05T22:02:03.061Z,100344.97
2023-03-05T22:04:33.426Z,100337.22
2023-03-05T22:07:01.001Z,100329.81
2023-03-05T22:09:28.550Z,100332.44
2023-03-05T22:11:56.146Z,100335.06
2023-03-05T22:14:25.169Z,100324.03
2023-03-05T22:16:53.599Z,100329.16
2023-03-05T22:19:21.257Z,100323.41
2023-03-05T22:21:49.014Z,100327.66
2023-03-05T22:24:16.559Z,100325.53
2023-03-05T22:26:44.048Z,100330.16
2023-03-05T22:29:12.932Z,100326.53
2023-03-05T22:31:41.841Z,100320.94
2023-03-05T22:34:09.397Z,100328.16
2023-03-05T22:36:37.368Z,100329.78
2023-03-05T22:39:05.190Z,100324.22
2023-03-05T22:41:32.802Z,100324.53
2023-03-05T22:44:00.356Z,100322.06
2023-03-05T22:46:28.024Z,100314.97
2023-03-05T22:48:56.962Z,100315.63
2023-03-05T22:51:24.519Z,100307.41
2023-03-05T22:53:52.152Z,100306.72
2023-03-05T22:56:20.998Z,100305.06
2023-03-05T22:58:49.361Z,100309.66
2023-03-05T23:01:18.781Z,100300.44
2023-03-05T23:04:18.695Z,100298.13
2023-03-05T23:06:48.413Z,100294.84
2023-03-05T23:09:15.972Z,100302.28
2023-03-05T23:11:43.530Z,100300.13
2023-03-05T23:14:11.167Z,100296.19
2023-03-05T23:16:38.882Z,100303.59
2023-03-05T23:19:07.766Z,100294.88
2023-03-05T23:21:35.270Z,100296.16
2023-03-05T23:24:02.822Z,100291.25
2023-03-05T23:26:30.389Z,100292.59
2023-03-05T23:28:57.953Z,100294.72
2023-03-05T23:31:25.639Z,100299.16
2023-03-05T23:33:53.162Z,100300.19
2023-03-05T23:36:24.631Z,100302.13
2023-03-05T23:38:53.110Z,100305.78
2023-03-05T23:41:20.682Z,100303.47
2023-03-05T23:43:48.485Z,100300.34
2023-03-05T23:46:16.120Z,100303.31
2023-03-05T23:48:43.674Z,100298.06
2023-03-05T23:51:11.849Z,100290.28
2023-03-05T23:53:40.738Z,100293.25
2023-03-05T23:56:12.250Z,100299.19
2023-03-05T23:58:39.850Z,100289.66
